sensor_id;sensor_type;location;lat;lon;timestamp;P1;durP1;ratioP1;P2;durP2;ratioP2
11763;SDS011;5939;56.522;14.950;2024-02-28T00:02:13;3.83;;;3.23;;
11763;SDS011;5939;56.522;14.950;2024-02-28T00:04:40;3.90;;;3.40;;
11763;SDS011;5939;56.522;14.950;2024-02-28T00:07:06;3.17;;;2.87;;
11763;SDS011;5939;56.522;14.950;2024-02-28T00:09:32;3.37;;;2.90;;
11763;SDS011;5939;56.522;14.950;2024-02-28T00:11:58;3.77;;;3.17;;
11763;SDS011;5939;56.522;14.950;2024-02-28T00:14:23;3.03;;;2.73;;
11763;SDS011;5939;56.522;14.950;2024-02-28T00:16:49;3.30;;;3.00;;
11763;SDS011;5939;56.522;14.950;2024-02-28T00:19:15;5.23;;;3.13;;
11763;SDS011;5939;56.522;14.950;2024-02-28T00:21:43;3.50;;;3.20;;
11763;SDS011;5939;56.522;14.950;2024-02-28T00:24:09;3.80;;;3.37;;
11763;SDS011;5939;56.522;14.950;2024-02-28T00:26:35;3.97;;;3.00;;
11763;SDS011;5939;56.522;14.950;2024-02-28T00:29:01;3.80;;;3.23;;
11763;SDS011;5939;56.522;14.950;2024-02-28T00:31:27;3.13;;;2.83;;
11763;SDS011;5939;56.522;14.950;2024-02-28T00:33:53;3.47;;;3.00;;
11763;SDS011;5939;56.522;14.950;2024-02-28T00:36:18;3.27;;;2.73;;
11763;SDS011;5939;56.522;14.950;2024-02-28T00:38:44;3.53;;;2.70;;
11763;SDS011;5939;56.522;14.950;2024-02-28T00:41:10;2.97;;;2.67;;
11763;SDS011;5939;56.522;14.950;2024-02-28T00:43:35;3.73;;;2.90;;
11763;SDS011;5939;56.522;14.950;2024-02-28T00:46:01;3.03;;;2.67;;
11763;SDS011;5939;56.522;14.950;2024-02-28T00:48:28;3.37;;;2.70;;
11763;SDS011;5939;56.522;14.950;2024-02-28T00:50:54;3.27;;;2.77;;
11763;SDS011;5939;56.522;14.950;2024-02-28T00:53:20;3.03;;;2.50;;
11763;SDS011;5939;56.522;14.950;2024-02-28T00:55:45;3.47;;;2.93;;
11763;SDS011;5939;56.522;14.950;2024-02-28T00:58:11;3.70;;;2.73;;
11763;SDS011;5939;56.522;14.950;2024-02-28T01:00:37;2.90;;;2.60;;
11763;SDS011;5939;56.522;14.950;2024-02-28T01:03:03;3.17;;;2.77;;
11763;SDS011;5939;56.522;14.950;2024-02-28T01:05:29;3.50;;;2.70;;
11763;SDS011;5939;56.522;14.950;2024-02-28T01:07:55;3.43;;;2.60;;
11763;SDS011;5939;56.522;14.950;2024-02-28T01:10:21;3.23;;;2.70;;
11763;SDS011;5939;56.522;14.950;2024-02-28T01:12:47;4.33;;;3.30;;
11763;SDS011;5939;56.522;14.950;2024-02-28T01:15:13;3.17;;;2.87;;
11763;SDS011;5939;56.522;14.950;2024-02-28T01:17:38;3.13;;;2.63;;
11763;SDS011;5939;56.522;14.950;2024-02-28T01:20:05;4.00;;;2.73;;
11763;SDS011;5939;56.522;14.950;2024-02-28T01:22:32;3.23;;;2.73;;
11763;SDS011;5939;56.522;14.950;2024-02-28T01:24:58;3.33;;;2.93;;
11763;SDS011;5939;56.522;14.950;2024-02-28T01:27:24;3.53;;;2.60;;
11763;SDS011;5939;56.522;14.950;2024-02-28T01:29:49;4.47;;;2.97;;
11763;SDS011;5939;56.522;14.950;2024-02-28T01:32:15;2.93;;;2.63;;
11763;SDS011;5939;56.522;14.950;2024-02-28T01:34:41;3.77;;;2.80;;
11763;SDS011;5939;56.522;14.950;2024-02-28T01:37:06;3.33;;;2.70;;
11763;SDS011;5939;56.522;14.950;2024-02-28T01:39:32;3.20;;;2.63;;
11763;SDS011;5939;56.522;14.950;2024-02-28T01:41:58;3.50;;;2.67;;
11763;SDS011;5939;56.522;14.950;2024-02-28T01:44:23;3.50;;;2.67;;
11763;SDS011;5939;56.522;14.950;2024-02-28T01:46:49;3.00;;;2.70;;
11763;SDS011;5939;56.522;14.950;2024-02-28T01:49:15;4.30;;;2.93;;
11763;SDS011;5939;56.522;14.950;2024-02-28T01:51:42;3.23;;;2.60;;
11763;SDS011;5939;56.522;14.950;2024-02-28T01:54:09;4.17;;;3.17;;
11763;SDS011;5939;56.522;14.950;2024-02-28T01:56:36;3.03;;;2.60;;
11763;SDS011;5939;56.522;14.950;2024-02-28T01:59:03;3.57;;;3.00;;
11763;SDS011;5939;56.522;14.950;2024-02-28T02:01:29;3.73;;;2.70;;
11763;SDS011;5939;56.522;14.950;2024-02-28T02:03:55;3.37;;;2.90;;
11763;SDS011;5939;56.522;14.950;2024-02-28T02:06:21;3.67;;;2.67;;
11763;SDS011;5939;56.522;14.950;2024-02-28T02:08:47;2.83;;;2.57;;
11763;SDS011;5939;56.522;14.950;2024-02-28T02:11:17;3.30;;;2.83;;
11763;SDS011;5939;56.522;14.950;2024-02-28T02:13:49;3.37;;;3.00;;
11763;SDS011;5939;56.522;14.950;2024-02-28T02:16:15;5.17;;;3.30;;
11763;SDS011;5939;56.522;14.950;2024-02-28T02:18:41;4.90;;;2.93;;
11763;SDS011;5939;56.522;14.950;2024-02-28T02:21:06;3.30;;;2.73;;
11763;SDS011;5939;56.522;14.950;2024-02-28T02:23:35;3.70;;;2.87;;
11763;SDS011;5939;56.522;14.950;2024-02-28T02:26:06;3.97;;;2.87;;
11763;SDS011;5939;56.522;14.950;2024-02-28T02:28:32;3.13;;;2.83;;
11763;SDS011;5939;56.522;14.950;2024-02-28T02:30:58;4.20;;;3.10;;
11763;SDS011;5939;56.522;14.950;2024-02-28T02:33:23;4.43;;;3.67;;
11763;SDS011;5939;56.522;14.950;2024-02-28T02:35:49;3.33;;;2.70;;
11763;SDS011;5939;56.522;14.950;2024-02-28T02:38:17;3.93;;;3.00;;
11763;SDS011;5939;56.522;14.950;2024-02-28T02:40:42;3.73;;;3.17;;
11763;SDS011;5939;56.522;14.950;2024-02-28T02:43:08;3.20;;;2.83;;
11763;SDS011;5939;56.522;14.950;2024-02-28T02:45:34;4.23;;;3.10;;
11763;SDS011;5939;56.522;14.950;2024-02-28T02:48:00;3.47;;;2.87;;
11763;SDS011;5939;56.522;14.950;2024-02-28T02:50:25;3.13;;;2.63;;
11763;SDS011;5939;56.522;14.950;2024-02-28T02:52:51;3.47;;;2.90;;
11763;SDS011;5939;56.522;14.950;2024-02-28T02:55:17;3.00;;;2.70;;
11763;SDS011;5939;56.522;14.950;2024-02-28T02:57:43;3.53;;;2.73;;
11763;SDS011;5939;56.522;14.950;2024-02-28T03:00:09;3.67;;;3.03;;
11763;SDS011;5939;56.522;14.950;2024-02-28T03:02:35;3.50;;;2.80;;
11763;SDS011;5939;56.522;14.950;2024-02-28T03:05:03;4.70;;;3.53;;
11763;SDS011;5939;56.522;14.950;2024-02-28T03:07:29;3.20;;;2.87;;
11763;SDS011;5939;56.522;14.950;2024-02-28T03:09:55;3.57;;;2.93;;
11763;SDS011;5939;56.522;14.950;2024-02-28T03:12:21;3.87;;;2.80;;
11763;SDS011;5939;56.522;14.950;2024-02-28T03:14:47;3.23;;;2.80;;
11763;SDS011;5939;56.522;14.950;2024-02-28T03:17:13;3.47;;;2.77;;
11763;SDS011;5939;56.522;14.950;2024-02-28T03:19:40;3.50;;;3.10;;
11763;SDS011;5939;56.522;14.950;2024-02-28T03:22:06;4.07;;;3.07;;
11763;SDS011;5939;56.522;14.950;2024-02-28T03:24:32;3.50;;;2.80;;
11763;SDS011;5939;56.522;14.950;2024-02-28T03:27:00;3.30;;;2.73;;
11763;SDS011;5939;56.522;14.950;2024-02-28T03:29:27;3.63;;;3.00;;
11763;SDS011;5939;56.522;14.950;2024-02-28T03:31:53;4.00;;;3.20;;
11763;SDS011;5939;56.522;14.950;2024-02-28T03:34:18;3.80;;;2.80;;
11763;SDS011;5939;56.522;14.950;2024-02-28T03:36:44;3.83;;;3.00;;
11763;SDS011;5939;56.522;14.950;2024-02-28T03:39:11;3.50;;;2.83;;
11763;SDS011;5939;56.522;14.950;2024-02-28T03:41:36;3.40;;;2.87;;
11763;SDS011;5939;56.522;14.950;2024-02-28T03:44:03;4.37;;;3.27;;
11763;SDS011;5939;56.522;14.950;2024-02-28T03:46:29;3.33;;;3.03;;
11763;SDS011;5939;56.522;14.950;2024-02-28T03:48:55;3.40;;;2.73;;
11763;SDS011;5939;56.522;14.950;2024-02-28T03:51:21;3.07;;;2.73;;
11763;SDS011;5939;56.522;14.950;2024-02-28T03:53:46;3.73;;;3.20;;
11763;SDS011;5939;56.522;14.950;2024-02-28T03:56:12;4.10;;;2.87;;
11763;SDS011;5939;56.522;14.950;2024-02-28T04:01:05;3.57;;;2.83;;
11763;SDS011;5939;56.522;14.950;2024-02-28T04:03:30;4.20;;;3.30;;
11763;SDS011;5939;56.522;14.950;2024-02-28T04:05:56;3.70;;;3.10;;
11763;SDS011;5939;56.522;14.950;2024-02-28T04:08:23;3.27;;;2.90;;
11763;SDS011;5939;56.522;14.950;2024-02-28T04:10:49;3.23;;;2.67;;
11763;SDS011;5939;56.522;14.950;2024-02-28T04:13:16;4.27;;;3.17;;
11763;SDS011;5939;56.522;14.950;2024-02-28T04:15:41;3.70;;;3.10;;
11763;SDS011;5939;56.522;14.950;2024-02-28T04:18:10;3.37;;;2.83;;
11763;SDS011;5939;56.522;14.950;2024-02-28T04:20:36;4.47;;;3.37;;
11763;SDS011;5939;56.522;14.950;2024-02-28T04:23:03;3.87;;;2.93;;
11763;SDS011;5939;56.522;14.950;2024-02-28T04:25:29;3.93;;;2.93;;
11763;SDS011;5939;56.522;14.950;2024-02-28T04:27:54;4.10;;;3.13;;
11763;SDS011;5939;56.522;14.950;2024-02-28T04:30:22;4.67;;;3.30;;
11763;SDS011;5939;56.522;14.950;2024-02-28T04:32:47;4.13;;;3.40;;
11763;SDS011;5939;56.522;14.950;2024-02-28T04:35:13;3.40;;;2.90;;
11763;SDS011;5939;56.522;14.950;2024-02-28T04:37:43;3.77;;;3.30;;
11763;SDS011;5939;56.522;14.950;2024-02-28T04:40:12;4.03;;;3.23;;
11763;SDS011;5939;56.522;14.950;2024-02-28T04:42:38;3.57;;;2.77;;
11763;SDS011;5939;56.522;14.950;2024-02-28T04:45:04;4.33;;;3.20;;
11763;SDS011;5939;56.522;14.950;2024-02-28T04:47:30;4.00;;;3.37;;
11763;SDS011;5939;56.522;14.950;2024-02-28T04:49:56;3.57;;;3.27;;
11763;SDS011;5939;56.522;14.950;2024-02-28T04:52:22;3.50;;;2.97;;
11763;SDS011;5939;56.522;14.950;2024-02-28T04:54:49;4.17;;;3.50;;
11763;SDS011;5939;56.522;14.950;2024-02-28T04:57:16;3.70;;;2.90;;
11763;SDS011;5939;56.522;14.950;2024-02-28T04:59:42;4.47;;;3.27;;
11763;SDS011;5939;56.522;14.950;2024-02-28T05:02:09;4.10;;;3.40;;
11763;SDS011;5939;56.522;14.950;2024-02-28T05:04:35;3.87;;;3.13;;
11763;SDS011;5939;56.522;14.950;2024-02-28T05:07:00;4.90;;;3.33;;
11763;SDS011;5939;56.522;14.950;2024-02-28T05:09:26;4.67;;;3.23;;
11763;SDS011;5939;56.522;14.950;2024-02-28T05:11:52;4.20;;;3.47;;
11763;SDS011;5939;56.522;14.950;2024-02-28T05:14:18;4.47;;;3.27;;
11763;SDS011;5939;56.522;14.950;2024-02-28T05:16:43;4.50;;;3.33;;
11763;SDS011;5939;56.522;14.950;2024-02-28T05:19:09;3.77;;;3.10;;
11763;SDS011;5939;56.522;14.950;2024-02-28T05:21:41;4.17;;;3.07;;
11763;SDS011;5939;56.522;14.950;2024-02-28T05:24:07;4.33;;;3.53;;
11763;SDS011;5939;56.522;14.950;2024-02-28T05:26:34;4.10;;;3.23;;
11763;SDS011;5939;56.522;14.950;2024-02-28T05:29:00;3.87;;;3.10;;
11763;SDS011;5939;56.522;14.950;2024-02-28T05:31:27;4.53;;;3.33;;
11763;SDS011;5939;56.522;14.950;2024-02-28T05:33:54;4.60;;;3.37;;
11763;SDS011;5939;56.522;14.950;2024-02-28T05:36:24;5.20;;;3.90;;
11763;SDS011;5939;56.522;14.950;2024-02-28T05:38:51;4.33;;;3.67;;
11763;SDS011;5939;56.522;14.950;2024-02-28T05:41:18;4.50;;;3.53;;
11763;SDS011;5939;56.522;14.950;2024-02-28T05:43:44;4.40;;;3.73;;
11763;SDS011;5939;56.522;14.950;2024-02-28T05:46:11;4.23;;;3.53;;
11763;SDS011;5939;56.522;14.950;2024-02-28T05:48:37;4.30;;;3.57;;
11763;SDS011;5939;56.522;14.950;2024-02-28T05:51:04;4.67;;;3.70;;
11763;SDS011;5939;56.522;14.950;2024-02-28T05:53:30;3.80;;;3.23;;
11763;SDS011;5939;56.522;14.950;2024-02-28T05:56:04;4.47;;;3.60;;
11763;SDS011;5939;56.522;14.950;2024-02-28T05:58:30;4.00;;;3.47;;
11763;SDS011;5939;56.522;14.950;2024-02-28T06:00:56;4.40;;;3.40;;
11763;SDS011;5939;56.522;14.950;2024-02-28T06:03:22;3.90;;;3.17;;
11763;SDS011;5939;56.522;14.950;2024-02-28T06:05:48;4.73;;;3.60;;
11763;SDS011;5939;56.522;14.950;2024-02-28T06:08:13;4.10;;;3.10;;
11763;SDS011;5939;56.522;14.950;2024-02-28T06:10:39;4.83;;;3.50;;
11763;SDS011;5939;56.522;14.950;2024-02-28T06:13:07;5.67;;;3.80;;
11763;SDS011;5939;56.522;14.950;2024-02-28T06:15:33;4.47;;;3.23;;
11763;SDS011;5939;56.522;14.950;2024-02-28T06:17:59;5.20;;;3.63;;
11763;SDS011;5939;56.522;14.950;2024-02-28T06:20:25;5.33;;;3.80;;
11763;SDS011;5939;56.522;14.950;2024-02-28T06:22:51;4.80;;;3.53;;
11763;SDS011;5939;56.522;14.950;2024-02-28T06:25:17;5.17;;;3.67;;
11763;SDS011;5939;56.522;14.950;2024-02-28T06:27:44;5.67;;;4.13;;
11763;SDS011;5939;56.522;14.950;2024-02-28T06:30:11;5.10;;;3.70;;
11763;SDS011;5939;56.522;14.950;2024-02-28T06:32:40;4.93;;;4.20;;
11763;SDS011;5939;56.522;14.950;2024-02-28T06:35:06;4.70;;;3.87;;
11763;SDS011;5939;56.522;14.950;2024-02-28T06:37:32;5.30;;;4.00;;
11763;SDS011;5939;56.522;14.950;2024-02-28T06:39:59;5.07;;;3.43;;
11763;SDS011;5939;56.522;14.950;2024-02-28T06:42:24;5.27;;;3.80;;
11763;SDS011;5939;56.522;14.950;2024-02-28T06:44:50;5.27;;;3.80;;
11763;SDS011;5939;56.522;14.950;2024-02-28T06:47:16;5.67;;;4.40;;
11763;SDS011;5939;56.522;14.950;2024-02-28T06:49:43;5.03;;;3.90;;
11763;SDS011;5939;56.522;14.950;2024-02-28T06:52:09;5.73;;;4.10;;
11763;SDS011;5939;56.522;14.950;2024-02-28T06:54:34;4.83;;;3.90;;
11763;SDS011;5939;56.522;14.950;2024-02-28T06:57:00;5.93;;;4.17;;
11763;SDS011;5939;56.522;14.950;2024-02-28T06:59:26;5.13;;;4.03;;
11763;SDS011;5939;56.522;14.950;2024-02-28T07:01:51;6.13;;;4.30;;
11763;SDS011;5939;56.522;14.950;2024-02-28T07:04:17;6.17;;;4.47;;
11763;SDS011;5939;56.522;14.950;2024-02-28T07:06:42;6.60;;;4.70;;
11763;SDS011;5939;56.522;14.950;2024-02-28T07:09:08;5.63;;;4.10;;
11763;SDS011;5939;56.522;14.950;2024-02-28T07:11:34;6.90;;;4.43;;
11763;SDS011;5939;56.522;14.950;2024-02-28T07:14:00;5.67;;;4.07;;
11763;SDS011;5939;56.522;14.950;2024-02-28T07:16:29;5.37;;;4.30;;
11763;SDS011;5939;56.522;14.950;2024-02-28T07:18:55;6.23;;;4.83;;
11763;SDS011;5939;56.522;14.950;2024-02-28T07:21:21;4.90;;;4.27;;
11763;SDS011;5939;56.522;14.950;2024-02-28T07:23:46;6.07;;;4.47;;
11763;SDS011;5939;56.522;14.950;2024-02-28T07:26:15;6.67;;;4.13;;
11763;SDS011;5939;56.522;14.950;2024-02-28T07:28:41;5.43;;;4.30;;
11763;SDS011;5939;56.522;14.950;2024-02-28T07:31:07;5.97;;;4.73;;
11763;SDS011;5939;56.522;14.950;2024-02-28T07:33:39;6.07;;;4.53;;
11763;SDS011;5939;56.522;14.950;2024-02-28T07:36:05;6.67;;;5.07;;
11763;SDS011;5939;56.522;14.950;2024-02-28T07:38:31;7.43;;;5.00;;
11763;SDS011;5939;56.522;14.950;2024-02-28T07:40:57;8.07;;;5.20;;
11763;SDS011;5939;56.522;14.950;2024-02-28T07:43:23;6.53;;;4.60;;
11763;SDS011;5939;56.522;14.950;2024-02-28T07:45:49;6.90;;;5.20;;
11763;SDS011;5939;56.522;14.950;2024-02-28T07:48:15;8.67;;;5.67;;
11763;SDS011;5939;56.522;14.950;2024-02-28T07:50:43;6.93;;;4.73;;
11763;SDS011;5939;56.522;14.950;2024-02-28T07:53:12;7.07;;;4.87;;
11763;SDS011;5939;56.522;14.950;2024-02-28T07:55:38;7.70;;;5.23;;
11763;SDS011;5939;56.522;14.950;2024-02-28T07:58:04;7.13;;;4.80;;
11763;SDS011;5939;56.522;14.950;2024-02-28T08:00:31;7.67;;;5.40;;
11763;SDS011;5939;56.522;14.950;2024-02-28T08:02:58;7.97;;;5.60;;
11763;SDS011;5939;56.522;14.950;2024-02-28T08:05:24;7.33;;;5.30;;
11763;SDS011;5939;56.522;14.950;2024-02-28T08:07:50;6.73;;;5.50;;
11763;SDS011;5939;56.522;14.950;2024-02-28T08:10:15;7.13;;;5.40;;
11763;SDS011;5939;56.522;14.950;2024-02-28T08:12:41;8.93;;;5.70;;
11763;SDS011;5939;56.522;14.950;2024-02-28T08:15:07;7.27;;;4.57;;
11763;SDS011;5939;56.522;14.950;2024-02-28T08:17:33;7.07;;;4.90;;
11763;SDS011;5939;56.522;14.950;2024-02-28T08:19:58;8.83;;;5.27;;
11763;SDS011;5939;56.522;14.950;2024-02-28T08:22:24;8.40;;;4.97;;
11763;SDS011;5939;56.522;14.950;2024-02-28T08:24:51;7.60;;;5.50;;
11763;SDS011;5939;56.522;14.950;2024-02-28T08:27:16;7.83;;;5.57;;
11763;SDS011;5939;56.522;14.950;2024-02-28T08:29:42;8.23;;;5.77;;
11763;SDS011;5939;56.522;14.950;2024-02-28T08:32:12;7.33;;;5.43;;
11763;SDS011;5939;56.522;14.950;2024-02-28T08:34:38;6.43;;;5.20;;
11763;SDS011;5939;56.522;14.950;2024-02-28T08:37:04;6.87;;;5.23;;
11763;SDS011;5939;56.522;14.950;2024-02-28T08:39:29;7.67;;;5.50;;
11763;SDS011;5939;56.522;14.950;2024-02-28T08:41:55;7.77;;;5.40;;
11763;SDS011;5939;56.522;14.950;2024-02-28T08:44:21;8.73;;;5.67;;
11763;SDS011;5939;56.522;14.950;2024-02-28T08:46:47;6.00;;;4.87;;
11763;SDS011;5939;56.522;14.950;2024-02-28T08:49:13;8.37;;;5.73;;
11763;SDS011;5939;56.522;14.950;2024-02-28T08:51:39;7.57;;;5.20;;
11763;SDS011;5939;56.522;14.950;2024-02-28T08:54:05;8.23;;;5.53;;
11763;SDS011;5939;56.522;14.950;2024-02-28T08:56:31;8.93;;;5.83;;
11763;SDS011;5939;56.522;14.950;2024-02-28T08:58:58;8.43;;;5.53;;
11763;SDS011;5939;56.522;14.950;2024-02-28T09:01:24;7.60;;;5.20;;
11763;SDS011;5939;56.522;14.950;2024-02-28T09:03:50;7.47;;;5.30;;
11763;SDS011;5939;56.522;14.950;2024-02-28T09:06:16;7.87;;;5.87;;
11763;SDS011;5939;56.522;14.950;2024-02-28T09:08:41;7.63;;;5.97;;
11763;SDS011;5939;56.522;14.950;2024-02-28T09:11:07;7.93;;;5.80;;
11763;SDS011;5939;56.522;14.950;2024-02-28T09:13:33;8.60;;;5.77;;
11763;SDS011;5939;56.522;14.950;2024-02-28T09:16:00;7.77;;;5.33;;
11763;SDS011;5939;56.522;14.950;2024-02-28T09:18:26;8.53;;;5.60;;
11763;SDS011;5939;56.522;14.950;2024-02-28T09:20:52;8.73;;;6.10;;
11763;SDS011;5939;56.522;14.950;2024-02-28T09:23:18;8.30;;;5.70;;
11763;SDS011;5939;56.522;14.950;2024-02-28T09:25:43;7.90;;;5.80;;
11763;SDS011;5939;56.522;14.950;2024-02-28T09:28:09;8.47;;;5.57;;
11763;SDS011;5939;56.522;14.950;2024-02-28T09:30:38;8.33;;;5.40;;
11763;SDS011;5939;56.522;14.950;2024-02-28T09:33:03;7.80;;;5.90;;
11763;SDS011;5939;56.522;14.950;2024-02-28T09:35:29;8.73;;;5.53;;
11763;SDS011;5939;56.522;14.950;2024-02-28T09:37:55;8.37;;;6.20;;
11763;SDS011;5939;56.522;14.950;2024-02-28T09:40:21;7.17;;;5.23;;
11763;SDS011;5939;56.522;14.950;2024-02-28T09:42:52;8.80;;;6.27;;
11763;SDS011;5939;56.522;14.950;2024-02-28T09:45:19;8.40;;;6.50;;
11763;SDS011;5939;56.522;14.950;2024-02-28T09:47:46;8.60;;;5.50;;
11763;SDS011;5939;56.522;14.950;2024-02-28T09:50:12;8.80;;;5.80;;
11763;SDS011;5939;56.522;14.950;2024-02-28T09:52:39;6.40;;;5.27;;
11763;SDS011;5939;56.522;14.950;2024-02-28T09:55:05;7.40;;;5.23;;
11763;SDS011;5939;56.522;14.950;2024-02-28T09:57:31;7.60;;;5.00;;
11763;SDS011;5939;56.522;14.950;2024-02-28T10:00:00;8.97;;;5.23;;
11763;SDS011;5939;56.522;14.950;2024-02-28T10:02:26;7.37;;;5.23;;
11763;SDS011;5939;56.522;14.950;2024-02-28T10:04:53;8.03;;;5.23;;
11763;SDS011;5939;56.522;14.950;2024-02-28T10:07:23;7.57;;;5.47;;
11763;SDS011;5939;56.522;14.950;2024-02-28T10:09:48;7.53;;;5.27;;
11763;SDS011;5939;56.522;14.950;2024-02-28T10:12:14;7.10;;;5.30;;
11763;SDS011;5939;56.522;14.950;2024-02-28T10:14:40;8.10;;;5.57;;
11763;SDS011;5939;56.522;14.950;2024-02-28T10:17:05;8.63;;;5.33;;
11763;SDS011;5939;56.522;14.950;2024-02-28T10:19:33;7.60;;;5.03;;
11763;SDS011;5939;56.522;14.950;2024-02-28T10:21:58;7.83;;;5.33;;
11763;SDS011;5939;56.522;14.950;2024-02-28T10:24:24;7.33;;;5.33;;
11763;SDS011;5939;56.522;14.950;2024-02-28T10:26:50;7.10;;;5.33;;
11763;SDS011;5939;56.522;14.950;2024-02-28T10:29:25;6.90;;;5.33;;
11763;SDS011;5939;56.522;14.950;2024-02-28T10:31:59;5.43;;;4.30;;
11763;SDS011;5939;56.522;14.950;2024-02-28T10:34:26;6.10;;;4.87;;
11763;SDS011;5939;56.522;14.950;2024-02-28T10:36:52;6.33;;;4.93;;
11763;SDS011;5939;56.522;14.950;2024-02-28T10:39:18;7.57;;;5.40;;
11763;SDS011;5939;56.522;14.950;2024-02-28T10:41:44;5.93;;;4.67;;
11763;SDS011;5939;56.522;14.950;2024-02-28T10:44:12;7.33;;;5.80;;
11763;SDS011;5939;56.522;14.950;2024-02-28T10:46:38;5.83;;;4.77;;
11763;SDS011;5939;56.522;14.950;2024-02-28T10:49:05;5.33;;;4.27;;
11763;SDS011;5939;56.522;14.950;2024-02-28T10:51:33;6.17;;;4.60;;
11763;SDS011;5939;56.522;14.950;2024-02-28T10:54:10;6.37;;;4.67;;
11763;SDS011;5939;56.522;14.950;2024-02-28T10:56:37;6.30;;;4.70;;
11763;SDS011;5939;56.522;14.950;2024-02-28T10:59:05;7.50;;;4.80;;
11763;SDS011;5939;56.522;14.950;2024-02-28T11:01:34;6.23;;;5.30;;
11763;SDS011;5939;56.522;14.950;2024-02-28T11:04:04;9.70;;;4.90;;
11763;SDS011;5939;56.522;14.950;2024-02-28T11:06:30;5.70;;;5.10;;
11763;SDS011;5939;56.522;14.950;2024-02-28T11:08:58;4.87;;;4.33;;
11763;SDS011;5939;56.522;14.950;2024-02-28T11:11:24;6.03;;;4.63;;
11763;SDS011;5939;56.522;14.950;2024-02-28T11:13:57;7.10;;;5.10;;
11763;SDS011;5939;56.522;14.950;2024-02-28T11:16:29;6.53;;;4.60;;
11763;SDS011;5939;56.522;14.950;2024-02-28T11:18:56;6.87;;;5.33;;
11763;SDS011;5939;56.522;14.950;2024-02-28T11:21:22;7.33;;;5.50;;
11763;SDS011;5939;56.522;14.950;2024-02-28T11:23:52;7.60;;;5.30;;
11763;SDS011;5939;56.522;14.950;2024-02-28T11:26:22;6.73;;;5.37;;
11763;SDS011;5939;56.522;14.950;2024-02-28T11:28:47;6.87;;;5.73;;
11763;SDS011;5939;56.522;14.950;2024-02-28T11:31:14;6.57;;;5.03;;
11763;SDS011;5939;56.522;14.950;2024-02-28T11:33:40;7.27;;;5.33;;
11763;SDS011;5939;56.522;14.950;2024-02-28T11:36:05;6.27;;;5.17;;
11763;SDS011;5939;56.522;14.950;2024-02-28T11:38:32;8.00;;;5.90;;
11763;SDS011;5939;56.522;14.950;2024-02-28T11:41:03;8.23;;;5.83;;
11763;SDS011;5939;56.522;14.950;2024-02-28T11:43:30;7.17;;;5.30;;
11763;SDS011;5939;56.522;14.950;2024-02-28T11:45:57;7.30;;;5.30;;
11763;SDS011;5939;56.522;14.950;2024-02-28T11:48:23;6.27;;;5.30;;
11763;SDS011;5939;56.522;14.950;2024-02-28T11:50:50;7.23;;;5.67;;
11763;SDS011;5939;56.522;14.950;2024-02-28T11:53:16;8.27;;;6.10;;
11763;SDS011;5939;56.522;14.950;2024-02-28T11:55:42;6.33;;;5.17;;
11763;SDS011;5939;56.522;14.950;2024-02-28T11:58:08;7.60;;;5.10;;
11763;SDS011;5939;56.522;14.950;2024-02-28T12:00:34;8.23;;;5.10;;
11763;SDS011;5939;56.522;14.950;2024-02-28T12:03:10;6.23;;;5.27;;
11763;SDS011;5939;56.522;14.950;2024-02-28T12:05:37;7.00;;;5.33;;
11763;SDS011;5939;56.522;14.950;2024-02-28T12:08:03;7.20;;;5.63;;
11763;SDS011;5939;56.522;14.950;2024-02-28T12:10:30;6.53;;;5.37;;
11763;SDS011;5939;56.522;14.950;2024-02-28T12:12:59;6.90;;;5.43;;
11763;SDS011;5939;56.522;14.950;2024-02-28T12:15:28;7.27;;;5.33;;
11763;SDS011;5939;56.522;14.950;2024-02-28T12:17:57;6.60;;;5.07;;
11763;SDS011;5939;56.522;14.950;2024-02-28T12:20:25;6.83;;;5.17;;
11763;SDS011;5939;56.522;14.950;2024-02-28T12:22:51;6.83;;;5.13;;
11763;SDS011;5939;56.522;14.950;2024-02-28T12:25:16;5.30;;;4.63;;
11763;SDS011;5939;56.522;14.950;2024-02-28T12:27:42;7.20;;;5.70;;
11763;SDS011;5939;56.522;14.950;2024-02-28T12:30:08;5.37;;;4.83;;
11763;SDS011;5939;56.522;14.950;2024-02-28T12:32:34;7.50;;;5.00;;
11763;SDS011;5939;56.522;14.950;2024-02-28T12:34:59;6.20;;;4.77;;
11763;SDS011;5939;56.522;14.950;2024-02-28T12:37:25;6.50;;;4.90;;
11763;SDS011;5939;56.522;14.950;2024-02-28T12:39:51;6.60;;;4.97;;
11763;SDS011;5939;56.522;14.950;2024-02-28T12:42:17;6.63;;;5.10;;
11763;SDS011;5939;56.522;14.950;2024-02-28T12:44:43;5.77;;;4.97;;
11763;SDS011;5939;56.522;14.950;2024-02-28T12:47:12;6.03;;;4.97;;
11763;SDS011;5939;56.522;14.950;2024-02-28T12:49:38;6.50;;;4.90;;
11763;SDS011;5939;56.522;14.950;2024-02-28T12:52:03;7.03;;;5.37;;
11763;SDS011;5939;56.522;14.950;2024-02-28T12:54:29;6.07;;;4.90;;
11763;SDS011;5939;56.522;14.950;2024-02-28T12:56:55;5.47;;;4.50;;
11763;SDS011;5939;56.522;14.950;2024-02-28T12:59:21;5.63;;;4.23;;
11763;SDS011;5939;56.522;14.950;2024-02-28T13:01:47;5.97;;;4.37;;
11763;SDS011;5939;56.522;14.950;2024-02-28T13:04:16;5.47;;;4.20;;
11763;SDS011;5939;56.522;14.950;2024-02-28T13:06:41;4.67;;;4.10;;
11763;SDS011;5939;56.522;14.950;2024-02-28T13:09:07;4.87;;;4.27;;
11763;SDS011;5939;56.522;14.950;2024-02-28T13:11:38;5.13;;;4.40;;
11763;SDS011;5939;56.522;14.950;2024-02-28T13:14:04;5.03;;;4.10;;
11763;SDS011;5939;56.522;14.950;2024-02-28T13:16:30;5.40;;;4.27;;
11763;SDS011;5939;56.522;14.950;2024-02-28T13:18:56;5.57;;;4.70;;
11763;SDS011;5939;56.522;14.950;2024-02-28T13:21:21;5.07;;;4.47;;
11763;SDS011;5939;56.522;14.950;2024-02-28T13:23:47;4.90;;;4.00;;
11763;SDS011;5939;56.522;14.950;2024-02-28T13:26:14;6.33;;;4.57;;
11763;SDS011;5939;56.522;14.950;2024-02-28T13:28:43;4.80;;;4.30;;
11763;SDS011;5939;56.522;14.950;2024-02-28T13:31:09;5.73;;;4.30;;
11763;SDS011;5939;56.522;14.950;2024-02-28T13:33:35;5.90;;;4.37;;
11763;SDS011;5939;56.522;14.950;2024-02-28T13:36:02;5.13;;;4.37;;
11763;SDS011;5939;56.522;14.950;2024-02-28T13:38:28;6.30;;;4.70;;
11763;SDS011;5939;56.522;14.950;2024-02-28T13:40:55;5.10;;;4.40;;
11763;SDS011;5939;56.522;14.950;2024-02-28T13:43:21;5.07;;;4.47;;
11763;SDS011;5939;56.522;14.950;2024-02-28T13:45:47;4.63;;;4.17;;
11763;SDS011;5939;56.522;14.950;2024-02-28T13:48:18;4.90;;;4.27;;
11763;SDS011;5939;56.522;14.950;2024-02-28T13:50:46;6.17;;;4.40;;
11763;SDS011;5939;56.522;14.950;2024-02-28T13:53:12;5.17;;;4.17;;
11763;SDS011;5939;56.522;14.950;2024-02-28T13:55:40;5.63;;;4.40;;
11763;SDS011;5939;56.522;14.950;2024-02-28T13:58:07;4.47;;;3.67;;
11763;SDS011;5939;56.522;14.950;2024-02-28T14:00:34;4.60;;;4.13;;
11763;SDS011;5939;56.522;14.950;2024-02-28T14:03:01;5.57;;;4.60;;
11763;SDS011;5939;56.522;14.950;2024-02-28T14:05:27;5.97;;;4.57;;
11763;SDS011;5939;56.522;14.950;2024-02-28T14:07:53;5.27;;;4.47;;
11763;SDS011;5939;56.522;14.950;2024-02-28T14:10:20;6.47;;;4.87;;
11763;SDS011;5939;56.522;14.950;2024-02-28T14:12:47;5.37;;;4.30;;
11763;SDS011;5939;56.522;14.950;2024-02-28T14:15:13;7.33;;;4.73;;
11763;SDS011;5939;56.522;14.950;2024-02-28T14:17:39;5.93;;;4.63;;
11763;SDS011;5939;56.522;14.950;2024-02-28T14:20:05;7.27;;;4.87;;
11763;SDS011;5939;56.522;14.950;2024-02-28T14:22:32;5.47;;;4.50;;
11763;SDS011;5939;56.522;14.950;2024-02-28T14:24:58;6.33;;;4.73;;
11763;SDS011;5939;56.522;14.950;2024-02-28T14:27:24;5.57;;;4.87;;
11763;SDS011;5939;56.522;14.950;2024-02-28T14:29:55;6.30;;;4.60;;
11763;SDS011;5939;56.522;14.950;2024-02-28T14:32:21;5.73;;;4.73;;
11763;SDS011;5939;56.522;14.950;2024-02-28T14:34:47;6.03;;;4.60;;
11763;SDS011;5939;56.522;14.950;2024-02-28T14:37:14;5.20;;;4.20;;
11763;SDS011;5939;56.522;14.950;2024-02-28T14:39:39;5.77;;;4.20;;
11763;SDS011;5939;56.522;14.950;2024-02-28T14:42:06;6.37;;;4.93;;
11763;SDS011;5939;56.522;14.950;2024-02-28T14:44:33;5.27;;;4.27;;
11763;SDS011;5939;56.522;14.950;2024-02-28T14:46:59;5.47;;;4.37;;